sensor_id;sensor_type;location;lat;lon;timestamp;P1;durP1;ratioP1;P2;durP2;ratioP2
79533;SDS011;68982;52.160;6.736;2023-08-31T00:02:01;5.57;;;3.38;;
79533;SDS011;68982;52.160;6.736;2023-08-31T00:04:26;6.53;;;3.50;;
79533;SDS011;68982;52.160;6.736;2023-08-31T00:06:52;5.43;;;2.55;;
79533;SDS011;68982;52.160;6.736;2023-08-31T00:09:17;3.83;;;2.72;;
79533;SDS011;68982;52.160;6.736;2023-08-31T00:11:44;6.38;;;3.03;;
79533;SDS011;68982;52.160;6.736;2023-08-31T00:14:09;4.13;;;2.30;;
79533;SDS011;68982;52.160;6.736;2023-08-31T00:16:35;5.18;;;3.03;;
79533;SDS011;68982;52.160;6.736;2023-08-31T00:19:01;5.43;;;3.20;;
79533;SDS011;68982;52.160;6.736;2023-08-31T00:21:27;5.97;;;3.50;;
79533;SDS011;68982;52.160;6.736;2023-08-31T00:23:53;5.53;;;3.60;;
79533;SDS011;68982;52.160;6.736;2023-08-31T00:26:19;5.38;;;3.58;;
79533;SDS011;68982;52.160;6.736;2023-08-31T00:28:45;5.80;;;3.22;;
79533;SDS011;68982;52.160;6.736;2023-08-31T00:31:10;4.88;;;3.30;;
79533;SDS011;68982;52.160;6.736;2023-08-31T00:33:37;6.45;;;4.00;;
79533;SDS011;68982;52.160;6.736;2023-08-31T00:38:32;5.97;;;3.35;;
79533;SDS011;68982;52.160;6.736;2023-08-31T00:40:57;5.28;;;3.47;;
79533;SDS011;68982;52.160;6.736;2023-08-31T00:43:22;4.63;;;2.42;;
79533;SDS011;68982;52.160;6.736;2023-08-31T00:45:48;5.15;;;2.88;;
79533;SDS011;68982;52.160;6.736;2023-08-31T00:48:19;3.38;;;2.67;;
79533;SDS011;68982;52.160;6.736;2023-08-31T00:50:48;3.97;;;2.75;;
79533;SDS011;68982;52.160;6.736;2023-08-31T00:53:14;4.07;;;2.70;;
79533;SDS011;68982;52.160;6.736;2023-08-31T00:55:41;4.95;;;2.90;;
79533;SDS011;68982;52.160;6.736;2023-08-31T00:58:08;3.53;;;2.65;;
79533;SDS011;68982;52.160;6.736;2023-08-31T01:00:47;6.00;;;3.38;;
79533;SDS011;68982;52.160;6.736;2023-08-31T01:08:43;5.35;;;3.10;;
79533;SDS011;68982;52.160;6.736;2023-08-31T01:13:48;8.57;;;2.85;;
79533;SDS011;68982;52.160;6.736;2023-08-31T01:16:18;5.97;;;3.15;;
79533;SDS011;68982;52.160;6.736;2023-08-31T01:18:46;5.57;;;3.15;;
79533;SDS011;68982;52.160;6.736;2023-08-31T01:21:17;5.50;;;3.15;;
79533;SDS011;68982;52.160;6.736;2023-08-31T01:23:53;8.20;;;3.10;;
79533;SDS011;68982;52.160;6.736;2023-08-31T01:26:20;4.10;;;3.10;;
79533;SDS011;68982;52.160;6.736;2023-08-31T01:28:47;5.60;;;3.20;;
79533;SDS011;68982;52.160;6.736;2023-08-31T01:31:13;5.65;;;3.30;;
79533;SDS011;68982;52.160;6.736;2023-08-31T01:33:40;4.30;;;3.42;;
79533;SDS011;68982;52.160;6.736;2023-08-31T01:36:08;5.60;;;3.20;;
79533;SDS011;68982;52.160;6.736;2023-08-31T01:38:58;4.05;;;3.10;;
79533;SDS011;68982;52.160;6.736;2023-08-31T01:41:31;4.32;;;2.70;;
79533;SDS011;68982;52.160;6.736;2023-08-31T01:44:00;4.35;;;2.70;;
79533;SDS011;68982;52.160;6.736;2023-08-31T01:46:27;4.40;;;2.67;;
79533;SDS011;68982;52.160;6.736;2023-08-31T01:48:52;4.20;;;2.65;;
79533;SDS011;68982;52.160;6.736;2023-08-31T01:51:18;4.43;;;2.58;;
79533;SDS011;68982;52.160;6.736;2023-08-31T01:53:43;5.78;;;2.72;;
79533;SDS011;68982;52.160;6.736;2023-08-31T01:56:09;5.95;;;2.55;;
79533;SDS011;68982;52.160;6.736;2023-08-31T01:58:35;3.55;;;2.33;;
79533;SDS011;68982;52.160;6.736;2023-08-31T02:01:00;4.50;;;2.90;;
79533;SDS011;68982;52.160;6.736;2023-08-31T02:03:25;3.90;;;2.70;;
79533;SDS011;68982;52.160;6.736;2023-08-31T02:05:51;4.38;;;2.72;;
79533;SDS011;68982;52.160;6.736;2023-08-31T02:08:16;3.97;;;2.67;;
79533;SDS011;68982;52.160;6.736;2023-08-31T02:10:43;5.10;;;2.88;;
79533;SDS011;68982;52.160;6.736;2023-08-31T02:13:09;4.55;;;3.00;;
79533;SDS011;68982;52.160;6.736;2023-08-31T02:15:37;6.10;;;3.20;;
79533;SDS011;68982;52.160;6.736;2023-08-31T02:18:03;4.95;;;3.33;;
79533;SDS011;68982;52.160;6.736;2023-08-31T02:20:28;5.85;;;3.20;;
79533;SDS011;68982;52.160;6.736;2023-08-31T02:22:55;4.80;;;3.35;;
79533;SDS011;68982;52.160;6.736;2023-08-31T02:25:21;6.20;;;3.80;;
79533;SDS011;68982;52.160;6.736;2023-08-31T02:27:46;6.68;;;4.28;;
79533;SDS011;68982;52.160;6.736;2023-08-31T02:30:11;9.65;;;4.88;;
79533;SDS011;68982;52.160;6.736;2023-08-31T02:32:37;7.85;;;5.00;;
79533;SDS011;68982;52.160;6.736;2023-08-31T02:35:02;8.67;;;5.43;;
79533;SDS011;68982;52.160;6.736;2023-08-31T02:37:28;7.18;;;4.72;;
79533;SDS011;68982;52.160;6.736;2023-08-31T02:39:53;8.63;;;5.38;;
79533;SDS011;68982;52.160;6.736;2023-08-31T02:42:19;9.00;;;5.75;;
79533;SDS011;68982;52.160;6.736;2023-08-31T02:44:44;7.80;;;5.68;;
79533;SDS011;68982;52.160;6.736;2023-08-31T02:47:09;8.45;;;5.85;;
79533;SDS011;68982;52.160;6.736;2023-08-31T02:49:35;7.63;;;5.27;;
79533;SDS011;68982;52.160;6.736;2023-08-31T02:52:00;8.07;;;5.47;;
79533;SDS011;68982;52.160;6.736;2023-08-31T02:54:25;9.30;;;5.80;;
79533;SDS011;68982;52.160;6.736;2023-08-31T02:56:51;13.70;;;6.15;;
79533;SDS011;68982;52.160;6.736;2023-08-31T02:59:16;11.75;;;7.15;;
79533;SDS011;68982;52.160;6.736;2023-08-31T03:01:42;10.35;;;7.35;;
79533;SDS011;68982;52.160;6.736;2023-08-31T03:04:11;12.20;;;7.35;;
79533;SDS011;68982;52.160;6.736;2023-08-31T03:06:36;10.30;;;7.43;;
79533;SDS011;68982;52.160;6.736;2023-08-31T03:09:02;10.82;;;7.32;;
79533;SDS011;68982;52.160;6.736;2023-08-31T03:11:28;11.32;;;7.43;;
79533;SDS011;68982;52.160;6.736;2023-08-31T03:13:53;11.50;;;8.33;;
79533;SDS011;68982;52.160;6.736;2023-08-31T03:16:18;12.88;;;8.98;;
79533;SDS011;68982;52.160;6.736;2023-08-31T03:18:44;12.75;;;9.23;;
79533;SDS011;68982;52.160;6.736;2023-08-31T03:21:09;12.73;;;9.30;;
79533;SDS011;68982;52.160;6.736;2023-08-31T03:23:34;12.23;;;9.07;;
79533;SDS011;68982;52.160;6.736;2023-08-31T03:26:05;12.13;;;8.70;;
79533;SDS011;68982;52.160;6.736;2023-08-31T03:28:31;14.77;;;10.30;;
79533;SDS011;68982;52.160;6.736;2023-08-31T03:30:57;14.93;;;10.40;;
79533;SDS011;68982;52.160;6.736;2023-08-31T03:33:22;18.08;;;9.85;;
79533;SDS011;68982;52.160;6.736;2023-08-31T03:35:48;13.20;;;9.57;;
79533;SDS011;68982;52.160;6.736;2023-08-31T03:38:13;14.70;;;10.13;;
79533;SDS011;68982;52.160;6.736;2023-08-31T03:40:39;16.52;;;12.68;;
79533;SDS011;68982;52.160;6.736;2023-08-31T03:43:04;14.43;;;9.90;;
79533;SDS011;68982;52.160;6.736;2023-08-31T03:45:30;14.05;;;11.52;;
79533;SDS011;68982;52.160;6.736;2023-08-31T03:47:55;15.70;;;10.73;;
79533;SDS011;68982;52.160;6.736;2023-08-31T03:50:20;14.75;;;10.77;;
79533;SDS011;68982;52.160;6.736;2023-08-31T03:52:46;15.00;;;10.65;;
79533;SDS011;68982;52.160;6.736;2023-08-31T03:55:11;15.30;;;10.35;;
79533;SDS011;68982;52.160;6.736;2023-08-31T03:57:37;14.57;;;9.77;;
79533;SDS011;68982;52.160;6.736;2023-08-31T04:00:02;17.00;;;10.70;;
79533;SDS011;68982;52.160;6.736;2023-08-31T04:02:33;19.40;;;10.90;;
79533;SDS011;68982;52.160;6.736;2023-08-31T04:04:59;16.08;;;10.65;;
79533;SDS011;68982;52.160;6.736;2023-08-31T04:07:25;13.50;;;10.13;;
79533;SDS011;68982;52.160;6.736;2023-08-31T04:09:50;13.40;;;9.95;;
79533;SDS011;68982;52.160;6.736;2023-08-31T04:12:15;16.42;;;11.30;;
79533;SDS011;68982;52.160;6.736;2023-08-31T04:14:41;16.13;;;10.97;;
79533;SDS011;68982;52.160;6.736;2023-08-31T04:17:06;16.88;;;11.32;;
79533;SDS011;68982;52.160;6.736;2023-08-31T04:19:32;16.30;;;10.85;;
79533;SDS011;68982;52.160;6.736;2023-08-31T04:21:57;17.73;;;11.98;;
79533;SDS011;68982;52.160;6.736;2023-08-31T04:24:22;16.20;;;13.57;;
79533;SDS011;68982;52.160;6.736;2023-08-31T04:26:48;15.95;;;12.00;;
79533;SDS011;68982;52.160;6.736;2023-08-31T04:29:16;16.40;;;11.77;;
79533;SDS011;68982;52.160;6.736;2023-08-31T04:31:41;15.18;;;11.13;;
79533;SDS011;68982;52.160;6.736;2023-08-31T04:34:07;15.27;;;10.52;;
79533;SDS011;68982;52.160;6.736;2023-08-31T04:36:32;15.98;;;11.02;;
79533;SDS011;68982;52.160;6.736;2023-08-31T04:38:58;13.68;;;10.13;;
79533;SDS011;68982;52.160;6.736;2023-08-31T04:41:23;14.15;;;10.45;;
79533;SDS011;68982;52.160;6.736;2023-08-31T04:43:49;13.38;;;10.45;;
79533;SDS011;68982;52.160;6.736;2023-08-31T04:46:14;12.85;;;9.68;;
79533;SDS011;68982;52.160;6.736;2023-08-31T04:48:40;16.20;;;10.27;;
79533;SDS011;68982;52.160;6.736;2023-08-31T04:51:05;13.02;;;9.77;;
79533;SDS011;68982;52.160;6.736;2023-08-31T04:53:31;15.32;;;9.70;;
79533;SDS011;68982;52.160;6.736;2023-08-31T04:55:57;10.73;;;8.50;;
79533;SDS011;68982;52.160;6.736;2023-08-31T04:58:22;12.23;;;8.45;;
79533;SDS011;68982;52.160;6.736;2023-08-31T05:00:47;11.27;;;8.13;;
79533;SDS011;68982;52.160;6.736;2023-08-31T05:03:13;11.68;;;8.90;;
79533;SDS011;68982;52.160;6.736;2023-08-31T05:05:39;10.10;;;8.35;;
79533;SDS011;68982;52.160;6.736;2023-08-31T05:08:07;13.40;;;8.88;;
79533;SDS011;68982;52.160;6.736;2023-08-31T05:10:33;11.57;;;8.45;;
79533;SDS011;68982;52.160;6.736;2023-08-31T05:12:59;12.32;;;10.63;;
79533;SDS011;68982;52.160;6.736;2023-08-31T05:15:24;14.55;;;9.57;;
79533;SDS011;68982;52.160;6.736;2023-08-31T05:17:52;13.57;;;10.00;;
79533;SDS011;68982;52.160;6.736;2023-08-31T05:20:18;15.82;;;9.93;;
79533;SDS011;68982;52.160;6.736;2023-08-31T05:22:43;14.88;;;10.02;;
79533;SDS011;68982;52.160;6.736;2023-08-31T05:25:08;18.45;;;10.85;;
79533;SDS011;68982;52.160;6.736;2023-08-31T05:27:34;14.85;;;11.80;;
79533;SDS011;68982;52.160;6.736;2023-08-31T05:29:59;18.15;;;11.52;;
79533;SDS011;68982;52.160;6.736;2023-08-31T05:32:27;16.63;;;10.17;;
79533;SDS011;68982;52.160;6.736;2023-08-31T05:34:53;17.90;;;11.32;;
79533;SDS011;68982;52.160;6.736;2023-08-31T05:37:18;14.85;;;10.85;;
79533;SDS011;68982;52.160;6.736;2023-08-31T05:39:47;16.88;;;11.35;;
79533;SDS011;68982;52.160;6.736;2023-08-31T05:42:13;16.45;;;11.10;;
79533;SDS011;68982;52.160;6.736;2023-08-31T05:44:39;15.23;;;11.27;;
79533;SDS011;68982;52.160;6.736;2023-08-31T05:47:04;14.87;;;10.97;;
79533;SDS011;68982;52.160;6.736;2023-08-31T05:49:30;16.20;;;10.35;;
79533;SDS011;68982;52.160;6.736;2023-08-31T05:51:55;13.57;;;10.60;;
79533;SDS011;68982;52.160;6.736;2023-08-31T05:54:20;15.68;;;9.90;;
79533;SDS011;68982;52.160;6.736;2023-08-31T05:56:46;14.00;;;9.80;;
79533;SDS011;68982;52.160;6.736;2023-08-31T05:59:12;13.25;;;9.85;;
79533;SDS011;68982;52.160;6.736;2023-08-31T06:01:38;14.03;;;10.00;;
79533;SDS011;68982;52.160;6.736;2023-08-31T06:04:03;15.30;;;10.30;;
79533;SDS011;68982;52.160;6.736;2023-08-31T06:06:29;15.25;;;10.00;;
79533;SDS011;68982;52.160;6.736;2023-08-31T06:08:54;13.85;;;10.55;;
79533;SDS011;68982;52.160;6.736;2023-08-31T06:11:20;13.27;;;9.88;;
79533;SDS011;68982;52.160;6.736;2023-08-31T06:13:46;17.70;;;11.18;;
79533;SDS011;68982;52.160;6.736;2023-08-31T06:16:11;22.20;;;10.88;;
79533;SDS011;68982;52.160;6.736;2023-08-31T06:18:37;17.80;;;11.55;;
79533;SDS011;68982;52.160;6.736;2023-08-31T06:21:02;15.10;;;11.00;;
79533;SDS011;68982;52.160;6.736;2023-08-31T06:23:28;14.43;;;10.68;;
79533;SDS011;68982;52.160;6.736;2023-08-31T06:25:53;16.77;;;10.95;;
79533;SDS011;68982;52.160;6.736;2023-08-31T06:28:18;14.32;;;10.57;;
79533;SDS011;68982;52.160;6.736;2023-08-31T06:30:44;15.57;;;11.63;;
79533;SDS011;68982;52.160;6.736;2023-08-31T06:33:13;14.68;;;10.98;;
79533;SDS011;68982;52.160;6.736;2023-08-31T06:35:39;16.55;;;11.30;;
79533;SDS011;68982;52.160;6.736;2023-08-31T06:38:05;15.23;;;11.00;;
79533;SDS011;68982;52.160;6.736;2023-08-31T06:40:30;17.52;;;12.18;;
79533;SDS011;68982;52.160;6.736;2023-08-31T06:42:55;14.95;;;12.07;;
79533;SDS011;68982;52.160;6.736;2023-08-31T06:45:21;14.82;;;11.48;;
79533;SDS011;68982;52.160;6.736;2023-08-31T06:47:46;14.90;;;11.32;;
79533;SDS011;68982;52.160;6.736;2023-08-31T06:50:11;15.77;;;12.57;;
79533;SDS011;68982;52.160;6.736;2023-08-31T06:52:37;15.20;;;10.60;;
79533;SDS011;68982;52.160;6.736;2023-08-31T06:55:02;16.25;;;10.88;;
79533;SDS011;68982;52.160;6.736;2023-08-31T06:57:28;15.10;;;10.40;;
79533;SDS011;68982;52.160;6.736;2023-08-31T06:59:53;15.63;;;11.10;;
79533;SDS011;68982;52.160;6.736;2023-08-31T07:02:19;13.40;;;10.90;;
79533;SDS011;68982;52.160;6.736;2023-08-31T07:04:47;15.73;;;10.55;;
79533;SDS011;68982;52.160;6.736;2023-08-31T07:07:13;17.17;;;11.50;;
79533;SDS011;68982;52.160;6.736;2023-08-31T07:09:39;15.32;;;11.88;;
79533;SDS011;68982;52.160;6.736;2023-08-31T07:12:08;14.32;;;11.25;;
79533;SDS011;68982;52.160;6.736;2023-08-31T07:14:33;14.10;;;10.60;;
79533;SDS011;68982;52.160;6.736;2023-08-31T07:16:59;15.55;;;11.45;;
79533;SDS011;68982;52.160;6.736;2023-08-31T07:19:24;14.43;;;10.82;;
79533;SDS011;68982;52.160;6.736;2023-08-31T07:21:49;14.23;;;10.82;;
79533;SDS011;68982;52.160;6.736;2023-08-31T07:24:15;16.92;;;10.93;;
79533;SDS011;68982;52.160;6.736;2023-08-31T07:26:40;15.77;;;10.40;;
79533;SDS011;68982;52.160;6.736;2023-08-31T07:29:05;16.40;;;11.60;;
79533;SDS011;68982;52.160;6.736;2023-08-31T07:31:31;15.95;;;11.48;;
79533;SDS011;68982;52.160;6.736;2023-08-31T07:33:57;15.20;;;10.93;;
79533;SDS011;68982;52.160;6.736;2023-08-31T07:36:22;14.93;;;10.80;;
79533;SDS011;68982;52.160;6.736;2023-08-31T07:38:47;13.52;;;10.55;;
79533;SDS011;68982;52.160;6.736;2023-08-31T07:41:13;16.58;;;12.30;;
79533;SDS011;68982;52.160;6.736;2023-08-31T07:43:38;15.60;;;10.88;;
79533;SDS011;68982;52.160;6.736;2023-08-31T07:46:03;15.30;;;10.67;;
79533;SDS011;68982;52.160;6.736;2023-08-31T07:48:29;13.40;;;10.30;;
79533;SDS011;68982;52.160;6.736;2023-08-31T07:50:54;16.48;;;10.77;;
79533;SDS011;68982;52.160;6.736;2023-08-31T07:53:20;14.13;;;10.30;;
79533;SDS011;68982;52.160;6.736;2023-08-31T07:55:52;15.13;;;10.70;;
79533;SDS011;68982;52.160;6.736;2023-08-31T07:58:22;12.75;;;9.70;;
79533;SDS011;68982;52.160;6.736;2023-08-31T08:00:48;13.10;;;9.70;;
79533;SDS011;68982;52.160;6.736;2023-08-31T08:03:14;13.20;;;8.63;;
79533;SDS011;68982;52.160;6.736;2023-08-31T08:05:40;12.32;;;8.68;;
79533;SDS011;68982;52.160;6.736;2023-08-31T08:08:06;15.55;;;8.43;;
79533;SDS011;68982;52.160;6.736;2023-08-31T08:10:31;10.40;;;7.72;;
79533;SDS011;68982;52.160;6.736;2023-08-31T08:12:57;10.50;;;8.07;;
79533;SDS011;68982;52.160;6.736;2023-08-31T08:15:23;11.38;;;8.02;;
79533;SDS011;68982;52.160;6.736;2023-08-31T08:17:49;13.43;;;8.25;;
79533;SDS011;68982;52.160;6.736;2023-08-31T08:20:14;10.88;;;7.93;;
79533;SDS011;68982;52.160;6.736;2023-08-31T08:22:40;9.88;;;7.38;;
79533;SDS011;68982;52.160;6.736;2023-08-31T08:25:05;10.88;;;6.57;;
79533;SDS011;68982;52.160;6.736;2023-08-31T08:27:31;7.93;;;6.45;;
79533;SDS011;68982;52.160;6.736;2023-08-31T08:29:58;8.13;;;6.85;;
79533;SDS011;68982;52.160;6.736;2023-08-31T08:32:24;8.65;;;5.22;;
79533;SDS011;68982;52.160;6.736;2023-08-31T08:34:50;7.82;;;5.35;;
79533;SDS011;68982;52.160;6.736;2023-08-31T08:37:16;7.38;;;5.50;;
79533;SDS011;68982;52.160;6.736;2023-08-31T08:39:41;6.78;;;4.50;;
79533;SDS011;68982;52.160;6.736;2023-08-31T08:42:07;6.25;;;5.07;;
79533;SDS011;68982;52.160;6.736;2023-08-31T08:44:35;9.20;;;5.50;;
79533;SDS011;68982;52.160;6.736;2023-08-31T08:47:01;9.77;;;6.93;;
79533;SDS011;68982;52.160;6.736;2023-08-31T08:49:27;7.90;;;5.47;;
79533;SDS011;68982;52.160;6.736;2023-08-31T08:51:54;7.15;;;5.28;;
79533;SDS011;68982;52.160;6.736;2023-08-31T08:54:19;11.18;;;5.38;;
79533;SDS011;68982;52.160;6.736;2023-08-31T08:56:46;6.95;;;5.35;;
79533;SDS011;68982;52.160;6.736;2023-08-31T08:59:12;7.90;;;4.95;;
79533;SDS011;68982;52.160;6.736;2023-08-31T09:01:38;9.52;;;5.10;;
79533;SDS011;68982;52.160;6.736;2023-08-31T09:04:04;7.38;;;4.25;;
79533;SDS011;68982;52.160;6.736;2023-08-31T09:06:30;6.00;;;3.85;;
79533;SDS011;68982;52.160;6.736;2023-08-31T09:08:55;9.07;;;4.07;;
79533;SDS011;68982;52.160;6.736;2023-08-31T09:11:21;7.15;;;4.18;;
79533;SDS011;68982;52.160;6.736;2023-08-31T09:13:47;6.68;;;4.88;;
79533;SDS011;68982;52.160;6.736;2023-08-31T09:16:23;5.18;;;3.38;;
79533;SDS011;68982;52.160;6.736;2023-08-31T09:18:52;5.63;;;3.60;;
79533;SDS011;68982;52.160;6.736;2023-08-31T09:21:17;7.03;;;3.42;;
79533;SDS011;68982;52.160;6.736;2023-08-31T09:23:47;7.78;;;3.30;;
79533;SDS011;68982;52.160;6.736;2023-08-31T09:26:20;6.00;;;3.03;;
79533;SDS011;68982;52.160;6.736;2023-08-31T09:28:45;5.95;;;3.45;;
79533;SDS011;68982;52.160;6.736;2023-08-31T09:31:11;4.85;;;2.90;;
79533;SDS011;68982;52.160;6.736;2023-08-31T09:33:36;3.25;;;1.90;;
79533;SDS011;68982;52.160;6.736;2023-08-31T09:36:02;3.80;;;2.20;;
79533;SDS011;68982;52.160;6.736;2023-08-31T09:38:29;4.22;;;1.73;;
79533;SDS011;68982;52.160;6.736;2023-08-31T09:41:04;5.63;;;2.20;;
79533;SDS011;68982;52.160;6.736;2023-08-31T09:43:33;4.53;;;1.98;;
79533;SDS011;68982;52.160;6.736;2023-08-31T09:45:59;4.85;;;1.75;;
79533;SDS011;68982;52.160;6.736;2023-08-31T09:48:25;3.38;;;1.95;;
79533;SDS011;68982;52.160;6.736;2023-08-31T09:50:52;3.33;;;1.52;;
79533;SDS011;68982;52.160;6.736;2023-08-31T09:53:17;3.53;;;1.73;;
79533;SDS011;68982;52.160;6.736;2023-08-31T09:55:45;4.13;;;1.30;;
79533;SDS011;68982;52.160;6.736;2023-08-31T09:58:12;1.92;;;0.90;;
79533;SDS011;68982;52.160;6.736;2023-08-31T10:00:42;5.15;;;1.17;;
79533;SDS011;68982;52.160;6.736;2023-08-31T10:03:08;4.75;;;1.20;;
79533;SDS011;68982;52.160;6.736;2023-08-31T10:05:34;3.40;;;1.05;;
79533;SDS011;68982;52.160;6.736;2023-08-31T10:08:00;3.67;;;1.60;;
79533;SDS011;68982;52.160;6.736;2023-08-31T10:10:27;5.78;;;1.75;;
79533;SDS011;68982;52.160;6.736;2023-08-31T10:12:54;3.85;;;1.35;;
79533;SDS011;68982;52.160;6.736;2023-08-31T10:15:21;3.25;;;1.20;;
79533;SDS011;68982;52.160;6.736;2023-08-31T10:17:46;4.05;;;1.20;;
79533;SDS011;68982;52.160;6.736;2023-08-31T10:20:13;3.25;;;1.40;;
79533;SDS011;68982;52.160;6.736;2023-08-31T10:22:41;4.20;;;1.75;;
79533;SDS011;68982;52.160;6.736;2023-08-31T10:25:06;3.85;;;1.70;;
79533;SDS011;68982;52.160;6.736;2023-08-31T10:27:39;6.18;;;2.35;;
79533;SDS011;68982;52.160;6.736;2023-08-31T10:33:17;6.03;;;2.08;;
79533;SDS011;68982;52.160;6.736;2023-08-31T10:38:13;6.32;;;2.45;;
79533;SDS011;68982;52.160;6.736;2023-08-31T10:43:43;6.05;;;2.10;;
79533;SDS011;68982;52.160;6.736;2023-08-31T10:49:06;6.30;;;2.17;;
79533;SDS011;68982;52.160;6.736;2023-08-31T10:54:20;3.92;;;2.33;;
79533;SDS011;68982;52.160;6.736;2023-08-31T10:59:40;4.75;;;2.65;;
79533;SDS011;68982;52.160;6.736;2023-08-31T11:02:06;5.65;;;2.30;;
79533;SDS011;68982;52.160;6.736;2023-08-31T11:04:51;5.57;;;1.90;;
79533;SDS011;68982;52.160;6.736;2023-08-31T11:07:24;4.95;;;2.05;;
79533;SDS011;68982;52.160;6.736;2023-08-31T11:09:51;6.00;;;2.03;;
79533;SDS011;68982;52.160;6.736;2023-08-31T11:12:16;5.20;;;2.08;;
79533;SDS011;68982;52.160;6.736;2023-08-31T11:14:42;5.50;;;1.88;;
79533;SDS011;68982;52.160;6.736;2023-08-31T11:17:07;5.28;;;1.77;;
79533;SDS011;68982;52.160;6.736;2023-08-31T11:19:34;5.00;;;1.70;;
79533;SDS011;68982;52.160;6.736;2023-08-31T11:22:00;4.22;;;1.73;;
79533;SDS011;68982;52.160;6.736;2023-08-31T11:24:27;4.32;;;1.52;;
79533;SDS011;68982;52.160;6.736;2023-08-31T11:26:54;6.07;;;1.55;;
79533;SDS011;68982;52.160;6.736;2023-08-31T11:29:20;6.85;;;1.50;;
79533;SDS011;68982;52.160;6.736;2023-08-31T11:31:46;4.53;;;1.40;;
79533;SDS011;68982;52.160;6.736;2023-08-31T11:34:12;5.28;;;1.48;;
79533;SDS011;68982;52.160;6.736;2023-08-31T11:36:38;6.45;;;2.08;;
79533;SDS011;68982;52.160;6.736;2023-08-31T11:39:05;5.10;;;1.70;;
79533;SDS011;68982;52.160;6.736;2023-08-31T11:41:32;6.72;;;1.88;;
79533;SDS011;68982;52.160;6.736;2023-08-31T11:44:00;4.65;;;1.92;;
79533;SDS011;68982;52.160;6.736;2023-08-31T11:46:26;4.35;;;2.53;;
79533;SDS011;68982;52.160;6.736;2023-08-31T11:48:52;4.25;;;2.28;;
79533;SDS011;68982;52.160;6.736;2023-08-31T11:51:18;4.88;;;2.00;;
79533;SDS011;68982;52.160;6.736;2023-08-31T11:53:44;4.10;;;1.88;;
79533;SDS011;68982;52.160;6.736;2023-08-31T11:56:09;2.60;;;1.65;;
79533;SDS011;68982;52.160;6.736;2023-08-31T11:58:44;4.53;;;1.98;;
79533;SDS011;68982;52.160;6.736;2023-08-31T12:01:21;4.90;;;2.10;;
79533;SDS011;68982;52.160;6.736;2023-08-31T12:03:46;3.67;;;2.58;;
79533;SDS011;68982;52.160;6.736;2023-08-31T12:06:18;5.38;;;2.42;;
79533;SDS011;68982;52.160;6.736;2023-08-31T12:08:44;6.57;;;2.72;;
79533;SDS011;68982;52.160;6.736;2023-08-31T12:11:09;4.93;;;3.10;;
79533;SDS011;68982;52.160;6.736;2023-08-31T12:13:34;5.22;;;3.40;;
79533;SDS011;68982;52.160;6.736;2023-08-31T12:16:00;4.35;;;3.20;;
79533;SDS011;68982;52.160;6.736;2023-08-31T12:18:29;5.70;;;3.03;;
79533;SDS011;68982;52.160;6.736;2023-08-31T12:20:56;7.88;;;3.55;;
79533;SDS011;68982;52.160;6.736;2023-08-31T12:23:22;7.45;;;3.75;;
79533;SDS011;68982;52.160;6.736;2023-08-31T12:25:48;9.43;;;3.47;;
79533;SDS011;68982;52.160;6.736;2023-08-31T12:28:17;6.97;;;3.50;;
79533;SDS011;68982;52.160;6.736;2023-08-31T12:30:47;7.35;;;3.10;;
79533;SDS011;68982;52.160;6.736;2023-08-31T12:33:17;6.20;;;3.22;;
79533;SDS011;68982;52.160;6.736;2023-08-31T12:35:43;4.85;;;3.08;;
79533;SDS011;68982;52.160;6.736;2023-08-31T12:38:09;4.25;;;2.80;;
79533;SDS011;68982;52.160;6.736;2023-08-31T12:40:35;4.30;;;2.30;;
79533;SDS011;68982;52.160;6.736;2023-08-31T12:43:03;3.88;;;1.70;;
79533;SDS011;68982;52.160;6.736;2023-08-31T12:45:29;3.03;;;1.52;;
79533;SDS011;68982;52.160;6.736;2023-08-31T12:47:54;2.42;;;1.10;;
79533;SDS011;68982;52.160;6.736;2023-08-31T12:50:20;2.15;;;1.27;;
79533;SDS011;68982;52.160;6.736;2023-08-31T12:52:46;2.40;;;1.20;;
79533;SDS011;68982;52.160;6.736;2023-08-31T12:55:14;1.90;;;1.27;;
79533;SDS011;68982;52.160;6.736;2023-08-31T12:57:41;2.60;;;1.50;;
79533;SDS011;68982;52.160;6.736;2023-08-31T13:00:07;3.55;;;1.40;;
79533;SDS011;68982;52.160;6.736;2023-08-31T13:02:40;2.97;;;1.17;;
79533;SDS011;68982;52.160;6.736;2023-08-31T13:07:35;5.68;;;1.83;;
79533;SDS011;68982;52.160;6.736;2023-08-31T13:10:01;2.72;;;1.20;;
79533;SDS011;68982;52.160;6.736;2023-08-31T13:12:29;3.08;;;1.25;;
79533;SDS011;68982;52.160;6.736;2023-08-31T13:14:58;4.72;;;1.40;;
79533;SDS011;68982;52.160;6.736;2023-08-31T13:17:24;3.30;;;1.30;;
79533;SDS011;68982;52.160;6.736;2023-08-31T13:19:52;3.45;;;1.30;;
79533;SDS011;68982;52.160;6.736;2023-08-31T13:22:18;4.45;;;1.20;;
79533;SDS011;68982;52.160;6.736;2023-08-31T13:24:45;4.75;;;1.60;;
79533;SDS011;68982;52.160;6.736;2023-08-31T13:27:10;3.38;;;1.20;;
79533;SDS011;68982;52.160;6.736;2023-08-31T13:29:36;2.60;;;1.20;;
79533;SDS011;68982;52.160;6.736;2023-08-31T13:32:01;4.13;;;1.40;;
79533;SDS011;68982;52.160;6.736;2023-08-31T13:34:27;3.95;;;1.30;;
79533;SDS011;68982;52.160;6.736;2023-08-31T13:36:52;4.25;;;1.55;;
79533;SDS011;68982;52.160;6.736;2023-08-31T13:39:18;8.30;;;1.33;;
79533;SDS011;68982;52.160;6.736;2023-08-31T13:41:43;4.88;;;1.55;;
79533;SDS011;68982;52.160;6.736;2023-08-31T13:44:11;5.18;;;1.50;;
79533;SDS011;68982;52.160;6.736;2023-08-31T13:46:36;3.17;;;1.30;;
79533;SDS011;68982;52.160;6.736;2023-08-31T13:49:01;2.63;;;1.05;;
79533;SDS011;68982;52.160;6.736;2023-08-31T13:51:27;5.55;;;1.30;;
79533;SDS011;68982;52.160;6.736;2023-08-31T13:53:53;2.88;;;1.05;;
79533;SDS011;68982;52.160;6.736;2023-08-31T13:56:19;4.30;;;1.48;;
79533;SDS011;68982;52.160;6.736;2023-08-31T13:58:45;3.70;;;1.30;;
79533;SDS011;68982;52.160;6.736;2023-08-31T14:01:10;3.47;;;1.02;;
79533;SDS011;68982;52.160;6.736;2023-08-31T14:03:38;3.47;;;0.90;;
79533;SDS011;68982;52.160;6.736;2023-08-31T14:06:03;2.03;;;0.90;;
79533;SDS011;68982;52.160;6.736;2023-08-31T14:08:29;4.28;;;0.95;;
79533;SDS011;68982;52.160;6.736;2023-08-31T14:10:54;1.38;;;0.73;;
79533;SDS011;68982;52.160;6.736;2023-08-31T14:13:20;5.03;;;1.08;;
79533;SDS011;68982;52.160;6.736;2023-08-31T14:15:46;2.58;;;0.95;;
79533;SDS011;68982;52.160;6.736;2023-08-31T14:18:12;3.70;;;0.95;;
79533;SDS011;68982;52.160;6.736;2023-08-31T14:20:38;4.13;;;1.17;;
79533;SDS011;68982;52.160;6.736;2023-08-31T14:23:04;3.58;;;0.93;;
79533;SDS011;68982;52.160;6.736;2023-08-31T14:25:38;4.28;;;1.13;;
79533;SDS011;68982;52.160;6.736;2023-08-31T14:28:04;3.60;;;0.90;;
79533;SDS011;68982;52.160;6.736;2023-08-31T14:30:30;3.10;;;1.10;;
79533;SDS011;68982;52.160;6.736;2023-08-31T14:32:55;4.65;;;0.80;;
79533;SDS011;68982;52.160;6.736;2023-08-31T14:35:21;3.13;;;1.30;;
79533;SDS011;68982;52.160;6.736;2023-08-31T14:37:46;6.22;;;1.30;;
79533;SDS011;68982;52.160;6.736;2023-08-31T14:40:11;2.03;;;0.80;;
79533;SDS011;68982;52.160;6.736;2023-08-31T14:42:37;2.90;;;1.25;;
79533;SDS011;68982;52.160;6.736;2023-08-31T14:45:03;5.18;;;1.00;;
79533;SDS011;68982;52.160;6.736;2023-08-31T14:47:28;4.28;;;1.02;;
79533;SDS011;68982;52.160;6.736;2023-08-31T14:49:57;2.85;;;1.27;;
79533;SDS011;68982;52.160;6.736;2023-08-31T14:52:22;2.15;;;0.82;;
79533;SDS011;68982;52.160;6.736;2023-08-31T14:54:47;2.90;;;1.13;;
79533;SDS011;68982;52.160;6.736;2023-08-31T14:57:13;5.55;;;1.88;;
79533;SDS011;68982;52.160;6.736;2023-08-31T14:59:39;4.22;;;1.33;;
79533;SDS011;68982;52.160;6.736;2023-08-31T15:02:04;4.80;;;1.00;;
79533;SDS011;68982;52.160;6.736;2023-08-31T15:04:31;2.75;;;1.15;;